createdAt,value
2022-12-25T00:00:21.112Z,7.20
2022-12-25T00:03:09.658Z,7.18
2022-12-25T00:05:39.804Z,7.18
2022-12-25T00:08:08.145Z,7.17
2022-12-25T00:10:42.899Z,7.17
2022-12-25T00:13:13.391Z,7.18
2022-12-25T00:15:42.068Z,7.19
2022-12-25T00:18:10.286Z,7.19
2022-12-25T00:20:38.448Z,7.17
2022-12-25T00:23:07.053Z,7.14
2022-12-25T00:25:35.116Z,7.12
2022-12-25T00:28:03.261Z,7.10
2022-12-25T00:30:31.354Z,7.07
2022-12-25T00:32:59.397Z,7.03
2022-12-25T00:35:27.923Z,7.01
2022-12-25T00:37:56.263Z,6.98
2022-12-25T00:40:24.448Z,6.94
2022-12-25T00:42:52.590Z,6.91
2022-12-25T00:45:20.891Z,6.88
2022-12-25T00:47:49.044Z,6.83
2022-12-25T00:50:18.307Z,6.76
2022-12-25T00:52:46.412Z,6.70
2022-12-25T00:55:14.585Z,6.62
2022-12-25T00:57:42.701Z,6.55
2022-12-25T01:00:11.276Z,6.50
2022-12-25T01:02:39.396Z,6.45
2022-12-25T01:05:08.617Z,6.40
2022-12-25T01:07:36.569Z,6.38
2022-12-25T01:10:23.405Z,6.38
2022-12-25T01:12:52.067Z,6.39
2022-12-25T01:15:19.994Z,6.42
2022-12-25T01:17:48.016Z,6.44
2022-12-25T01:20:17.740Z,6.45
2022-12-25T01:22:46.356Z,6.47
2022-12-25T01:25:14.491Z,6.49
2022-12-25T01:27:42.817Z,6.53
2022-12-25T01:30:11.715Z,6.54
2022-12-25T01:32:40.034Z,6.53
2022-12-25T01:35:08.803Z,6.54
2022-12-25T01:37:36.911Z,6.52
2022-12-25T01:40:06.120Z,6.51
2022-12-25T01:42:34.200Z,6.50
2022-12-25T01:45:32.206Z,6.49
2022-12-25T01:48:03.942Z,6.50
2022-12-25T01:50:33.374Z,6.51
2022-12-25T01:53:02.356Z,6.48
2022-12-25T01:55:30.840Z,6.48
2022-12-25T01:57:58.978Z,6.45
2022-12-25T02:00:26.996Z,6.46
2022-12-25T02:02:56.117Z,6.45
2022-12-25T02:05:30.984Z,6.43
2022-12-25T02:08:04.458Z,6.40
2022-12-25T02:10:32.567Z,6.37
2022-12-25T02:13:02.219Z,6.33
2022-12-25T02:15:40.104Z,6.30
2022-12-25T02:18:14.230Z,6.28
2022-12-25T02:21:16.706Z,6.27
2022-12-25T02:23:49.254Z,6.22
2022-12-25T02:26:54.963Z,6.21
2022-12-25T02:29:42.381Z,6.22
2022-12-25T02:32:24.736Z,6.24
2022-12-25T02:35:05.105Z,6.24
2022-12-25T02:37:45.549Z,6.23
2022-12-25T02:40:20.982Z,6.21
2022-12-25T02:43:13.091Z,6.18
2022-12-25T02:46:12.489Z,6.12
2022-12-25T02:49:12.243Z,6.04
2022-12-25T02:52:04.086Z,5.96
2022-12-25T02:54:55.655Z,5.88
2022-12-25T02:57:47.597Z,5.77
2022-12-25T03:00:35.228Z,5.70
2022-12-25T03:03:26.183Z,5.68
2022-12-25T03:06:18.482Z,5.65
2022-12-25T03:08:50.008Z,5.64
2022-12-25T03:11:33.233Z,5.61
2022-12-25T03:14:23.226Z,5.59
2022-12-25T03:16:56.339Z,5.57
2022-12-25T03:19:50.717Z,5.56
2022-12-25T03:22:49.454Z,5.55
2022-12-25T03:25:37.547Z,5.55
2022-12-25T03:28:06.467Z,5.56
2022-12-25T03:31:05.147Z,5.57
2022-12-25T03:34:11.643Z,5.57
2022-12-25T03:37:06.620Z,5.56
2022-12-25T03:39:59.472Z,5.52
2022-12-25T03:42:54.926Z,5.49
2022-12-25T03:45:52.778Z,5.44
2022-12-25T03:48:40.670Z,5.38
2022-12-25T03:51:32.375Z,5.33
2022-12-25T03:54:23.622Z,5.33
2022-12-25T03:57:11.101Z,5.33
2022-12-25T04:00:17.628Z,5.35
2022-12-25T04:03:04.283Z,5.36
2022-12-25T04:05:50.987Z,5.38
2022-12-25T04:08:37.678Z,5.37
2022-12-25T04:11:24.377Z,5.36
2022-12-25T04:14:10.962Z,5.33
2022-12-25T04:16:57.609Z,5.30
2022-12-25T04:19:44.318Z,5.28
2022-12-25T04:22:31.173Z,5.24
2022-12-25T04:25:25.286Z,5.17
2022-12-25T04:28:11.865Z,5.10
2022-12-25T04:30:58.712Z,5.05
2022-12-25T04:33:45.490Z,4.99
2022-12-25T04:36:13.668Z,4.92
2022-12-25T04:38:42.069Z,4.87
2022-12-25T04:41:12.624Z,4.80
2022-12-25T04:43:40.980Z,4.75
2022-12-25T04:46:09.255Z,4.72
2022-12-25T04:48:37.320Z,4.71
2022-12-25T04:51:17.621Z,4.74
2022-12-25T04:53:47.317Z,4.77
2022-12-25T04:56:16.186Z,4.79
2022-12-25T04:58:45.409Z,4.80
2022-12-25T05:01:14.540Z,4.79
2022-12-25T05:03:43.149Z,4.78
2022-12-25T05:06:11.383Z,4.75
2022-12-25T05:08:39.464Z,4.73
2022-12-25T05:11:10.794Z,4.71
2022-12-25T05:13:39.265Z,4.69
2022-12-25T05:16:09.979Z,4.66
2022-12-25T05:18:38.139Z,4.65
2022-12-25T05:21:08.334Z,4.63
2022-12-25T05:23:36.504Z,4.61
2022-12-25T05:26:06.809Z,4.58
2022-12-25T05:28:36.100Z,4.54
2022-12-25T05:31:04.134Z,4.49
2022-12-25T05:33:32.563Z,4.44
2022-12-25T05:36:05.707Z,4.40
2022-12-25T05:38:34.143Z,4.36
2022-12-25T05:41:02.137Z,4.34
2022-12-25T05:43:30.861Z,4.33
2022-12-25T05:45:58.892Z,4.34
2022-12-25T05:48:26.991Z,4.36
2022-12-25T05:50:55.246Z,4.38
2022-12-25T05:53:23.737Z,4.37
2022-12-25T05:55:51.817Z,4.39
2022-12-25T05:58:20.076Z,4.39
2022-12-25T06:00:48.146Z,4.38
2022-12-25T06:03:16.368Z,4.35
2022-12-25T06:05:44.574Z,4.37
2022-12-25T06:08:12.728Z,4.40
2022-12-25T06:10:40.890Z,4.41
2022-12-25T06:13:09.132Z,4.41
2022-12-25T06:15:41.649Z,4.40
2022-12-25T06:18:09.872Z,4.37
2022-12-25T06:20:41.126Z,4.35
2022-12-25T06:23:09.358Z,4.33
2022-12-25T06:25:41.081Z,4.34
2022-12-25T06:28:09.183Z,4.37
2022-12-25T06:30:37.292Z,4.35
2022-12-25T06:33:05.456Z,4.32
2022-12-25T06:35:33.532Z,4.29
2022-12-25T06:38:01.710Z,4.29
2022-12-25T06:40:29.801Z,4.30
2022-12-25T06:42:57.864Z,4.33
2022-12-25T06:45:26.251Z,4.38
2022-12-25T06:47:54.646Z,4.44
2022-12-25T06:50:22.836Z,4.51
2022-12-25T06:52:50.997Z,4.59
2022-12-25T06:55:19.190Z,4.65
2022-12-25T06:57:47.316Z,4.69
2022-12-25T07:00:15.796Z,4.66
2022-12-25T07:02:47.606Z,4.63
2022-12-25T07:05:16.280Z,4.62
2022-12-25T07:07:44.433Z,4.63
2022-12-25T07:10:12.522Z,4.65
2022-12-25T07:12:40.711Z,4.69
2022-12-25T07:15:09.679Z,4.72
2022-12-25T07:17:37.939Z,4.73
2022-12-25T07:20:07.209Z,4.80
2022-12-25T07:22:35.421Z,4.91
2022-12-25T07:25:03.532Z,5.03
2022-12-25T07:27:31.794Z,5.10
2022-12-25T07:29:59.817Z,5.20
2022-12-25T07:32:31.358Z,5.33
2022-12-25T07:34:59.315Z,5.47
2022-12-25T07:37:27.363Z,5.56
2022-12-25T07:39:55.456Z,5.64
2022-12-25T07:42:25.486Z,5.71
2022-12-25T07:44:55.712Z,5.73
2022-12-25T07:47:23.820Z,5.74
2022-12-25T07:49:52.052Z,5.74
2022-12-25T07:52:20.105Z,5.74
2022-12-25T07:54:48.316Z,5.74
2022-12-25T07:57:16.317Z,5.72
2022-12-25T07:59:44.801Z,5.71
2022-12-25T08:02:13.159Z,5.71
2022-12-25T08:04:42.123Z,5.72
2022-12-25T08:07:10.013Z,5.77
2022-12-25T08:09:38.079Z,5.89
2022-12-25T08:12:06.317Z,6.03
2022-12-25T08:14:34.311Z,6.15
2022-12-25T08:17:02.437Z,6.25
2022-12-25T08:19:30.578Z,6.35
2022-12-25T08:21:58.593Z,6.46
2022-12-25T08:24:26.812Z,6.57
2022-12-25T08:26:54.892Z,6.72
2022-12-25T08:29:22.926Z,6.89
2022-12-25T08:31:51.258Z,7.02
2022-12-25T08:34:19.510Z,7.14
2022-12-25T08:36:47.809Z,7.25
2022-12-25T08:39:15.838Z,7.36
2022-12-25T08:41:44.058Z,7.46
2022-12-25T08:44:12.395Z,7.56
2022-12-25T08:46:40.729Z,7.65
2022-12-25T08:49:09.027Z,7.72
2022-12-25T08:51:37.520Z,7.79
2022-12-25T08:54:05.693Z,7.86
2022-12-25T08:56:34.121Z,7.95
2022-12-25T08:59:02.756Z,8.02
2022-12-25T09:01:30.986Z,8.11
2022-12-25T09:03:59.486Z,8.22
2022-12-25T09:06:27.881Z,8.34
2022-12-25T09:08:56.242Z,8.48
2022-12-25T09:11:24.866Z,8.58
2022-12-25T09:13:53.147Z,8.71
2022-12-25T09:16:22.681Z,8.84
2022-12-25T09:18:51.290Z,8.91
2022-12-25T09:21:19.941Z,9.01
2022-12-25T09:23:48.410Z,9.13
2022-12-25T09:26:18.590Z,9.23
2022-12-25T09:28:51.799Z,9.32
2022-12-25T09:31:23.304Z,9.39
2022-12-25T09:33:55.965Z,9.44
2022-12-25T09:36:25.287Z,9.50
2022-12-25T09:38:53.427Z,9.54
2022-12-25T09:41:30.654Z,9.55
2022-12-25T09:44:13.857Z,9.57
2022-12-25T09:46:47.532Z,9.61
2022-12-25T09:49:33.162Z,9.66
2022-12-25T09:52:17.035Z,9.69
2022-12-25T09:54:50.205Z,9.77
2022-12-25T09:57:18.438Z,9.83
2022-12-25T09:59:47.716Z,9.88
2022-12-25T10:02:53.912Z,9.91
2022-12-25T10:05:28.070Z,9.95
2022-12-25T10:08:43.812Z,9.92
2022-12-25T10:12:01.305Z,9.88
2022-12-25T10:14:55.716Z,9.84
2022-12-25T10:17:30.114Z,9.88
2022-12-25T10:20:10.738Z,9.90
2022-12-25T10:22:42.771Z,9.90
2022-12-25T10:25:29.364Z,9.98
2022-12-25T10:28:03.369Z,10.06
2022-12-25T10:30:32.631Z,10.10
2022-12-25T10:33:00.658Z,10.14
2022-12-25T10:35:31.743Z,10.14
2022-12-25T10:38:10.179Z,10.20
2022-12-25T10:41:04.259Z,10.25
2022-12-25T10:43:49.138Z,10.24
2022-12-25T10:46:18.693Z,10.25
2022-12-25T10:48:52.998Z,10.25
2022-12-25T10:51:35.756Z,10.25
2022-12-25T10:54:21.630Z,10.22
2022-12-25T10:57:09.377Z,10.23
2022-12-25T10:59:46.899Z,10.28
2022-12-25T11:02:28.276Z,10.29
2022-12-25T11:05:14.447Z,10.30
2022-12-25T11:07:51.363Z,10.37
2022-12-25T11:10:44.433Z,10.48
2022-12-25T11:13:25.524Z,10.59
2022-12-25T11:16:10.724Z,10.69
2022-12-25T11:18:51.088Z,10.78
2022-12-25T11:21:25.245Z,10.85
2022-12-25T11:24:21.373Z,10.88
2022-12-25T11:26:55.314Z,10.90
2022-12-25T11:29:45.668Z,10.85
2022-12-25T11:32:33.113Z,10.74
2022-12-25T11:35:02.693Z,10.72
2022-12-25T11:37:39.431Z,10.72
2022-12-25T11:40:14.336Z,10.33
2022-12-25T11:42:50.296Z,10.26
2022-12-25T11:45:29.621Z,10.35
2022-12-25T11:48:20.926Z,10.47
2022-12-25T11:50:54.713Z,10.44
2022-12-25T11:53:38.818Z,10.42
2022-12-25T11:56:18.055Z,10.45
2022-12-25T11:59:17.957Z,10.53
2022-12-25T12:02:04.041Z,10.61
2022-12-25T12:04:45.208Z,10.64
2022-12-25T12:07:30.075Z,10.67
2022-12-25T12:10:21.669Z,10.66
2022-12-25T12:13:33.313Z,10.62
2022-12-25T12:16:04.257Z,10.58
2022-12-25T12:18:34.345Z,10.49
2022-12-25T12:21:07.076Z,10.43
2022-12-25T12:23:54.597Z,10.33
2022-12-25T12:26:28.614Z,10.12
2022-12-25T12:29:02.473Z,9.93
2022-12-25T12:31:40.645Z,9.78
2022-12-25T12:34:21.608Z,9.64
2022-12-25T12:36:53.335Z,9.58
2022-12-25T12:39:30.663Z,9.52
2022-12-25T12:41:58.755Z,9.49
2022-12-25T12:44:34.848Z,9.43
2022-12-25T12:47:03.350Z,9.36
2022-12-25T12:49:33.852Z,9.30
2022-12-25T12:52:23.703Z,9.24
2022-12-25T12:55:06.925Z,9.16
2022-12-25T12:57:40.161Z,9.10
2022-12-25T13:00:17.298Z,9.05
2022-12-25T13:02:51.979Z,9.00
2022-12-25T13:05:40.215Z,8.97
2022-12-25T13:08:20.155Z,8.96
2022-12-25T13:11:03.262Z,8.98
2022-12-25T13:13:37.193Z,8.96
2022-12-25T13:16:07.055Z,8.95
2022-12-25T13:18:35.231Z,8.94
2022-12-25T13:21:06.174Z,8.91
2022-12-25T13:23:37.141Z,8.88
2022-12-25T13:26:15.223Z,8.82
2022-12-25T13:28:46.676Z,8.76
2022-12-25T13:31:21.173Z,8.73
2022-12-25T13:33:52.993Z,8.67
2022-12-25T13:36:21.173Z,8.61
2022-12-25T13:38:52.466Z,8.53
2022-12-25T13:41:42.596Z,8.47
2022-12-25T13:44:22.881Z,8.39
2022-12-25T13:46:51.152Z,8.31
2022-12-25T13:49:22.117Z,8.24
2022-12-25T13:51:51.744Z,8.19
2022-12-25T13:54:19.867Z,8.15
2022-12-25T13:56:52.178Z,8.12
2022-12-25T13:59:22.899Z,8.11
2022-12-25T14:01:53.977Z,8.11
2022-12-25T14:04:24.595Z,8.10
2022-12-25T14:06:53.169Z,8.07
2022-12-25T14:09:22.422Z,8.02
2022-12-25T14:11:52.452Z,7.96
2022-12-25T14:14:23.425Z,7.87
2022-12-25T14:16:56.446Z,7.77
2022-12-25T14:19:29.386Z,7.65
2022-12-25T14:22:05.299Z,7.56
2022-12-25T14:24:34.715Z,7.46
2022-12-25T14:27:15.606Z,7.34
2022-12-25T14:29:46.077Z,7.22
2022-12-25T14:32:18.347Z,7.13
2022-12-25T14:34:49.309Z,7.04
2022-12-25T14:37:21.832Z,6.99
2022-12-25T14:39:59.091Z,6.95
2022-12-25T14:42:29.986Z,6.94
2022-12-25T14:44:59.964Z,6.91
2022-12-25T14:47:28.564Z,6.89
2022-12-25T14:49:56.971Z,6.87
2022-12-25T14:52:58.460Z,6.84
2022-12-25T14:55:29.614Z,6.82
2022-12-25T14:58:04.745Z,6.78
2022-12-25T15:00:42.650Z,6.73
2022-12-25T15:03:26.911Z,6.68
2022-12-25T15:06:04.043Z,6.62
2022-12-25T15:08:34.924Z,6.55
2022-12-25T15:11:03.878Z,6.52
2022-12-25T15:13:33.069Z,6.44
2022-12-25T15:16:19.710Z,6.37
2022-12-25T15:18:50.132Z,6.30
2022-12-25T15:21:30.298Z,6.23
2022-12-25T15:24:00.198Z,6.18
2022-12-25T15:26:30.613Z,6.16
2022-12-25T15:28:59.439Z,6.15
2022-12-25T15:31:30.670Z,6.15
2022-12-25T15:34:05.821Z,6.14
2022-12-25T15:36:36.741Z,6.14
2022-12-25T15:39:04.827Z,6.15
2022-12-25T15:41:55.668Z,6.16
2022-12-25T15:44:24.844Z,6.18
2022-12-25T15:46:53.016Z,6.19
2022-12-25T15:49:21.584Z,6.17
2022-12-25T15:51:50.225Z,6.09
2022-12-25T15:54:19.015Z,6.00
2022-12-25T15:57:07.423Z,5.96
2022-12-25T15:59:35.614Z,5.92
2022-12-25T16:02:03.730Z,5.89
2022-12-25T16:04:32.036Z,5.85
2022-12-25T16:07:00.464Z,5.79
2022-12-25T16:09:28.643Z,5.72
2022-12-25T16:11:57.007Z,5.63
2022-12-25T16:14:25.497Z,5.54
2022-12-25T16:16:54.022Z,5.44
2022-12-25T16:19:22.343Z,5.37
2022-12-25T16:21:50.593Z,5.32
2022-12-25T16:24:18.783Z,5.26
2022-12-25T16:26:46.866Z,5.17
2022-12-25T16:29:15.145Z,5.11
2022-12-25T16:31:43.357Z,5.09
2022-12-25T16:34:11.427Z,5.08
2022-12-25T16:36:39.562Z,5.10
2022-12-25T16:39:08.716Z,5.11
2022-12-25T16:41:36.822Z,5.10
2022-12-25T16:44:09.599Z,5.08
2022-12-25T16:46:40.015Z,5.04
2022-12-25T16:49:09.030Z,4.97
2022-12-25T16:51:37.418Z,4.89
2022-12-25T16:54:06.055Z,4.81
2022-12-25T16:56:36.766Z,4.74
2022-12-25T16:59:04.926Z,4.64
2022-12-25T17:01:33.330Z,4.51
2022-12-25T17:04:02.205Z,4.38
2022-12-25T17:06:30.622Z,4.26
2022-12-25T17:09:00.884Z,4.15
2022-12-25T17:11:30.366Z,4.07
2022-12-25T17:14:02.786Z,4.01
2022-12-25T17:16:36.820Z,3.97
2022-12-25T17:19:19.001Z,3.94
2022-12-25T17:21:47.761Z,3.90
2022-12-25T17:24:16.310Z,3.88
2022-12-25T17:26:45.014Z,3.88
2022-12-25T17:29:21.377Z,3.90
2022-12-25T17:31:51.003Z,3.90
2022-12-25T17:34:20.235Z,3.85
2022-12-25T17:36:48.265Z,3.81
2022-12-25T17:39:16.399Z,3.79
2022-12-25T17:41:44.700Z,3.72
2022-12-25T17:44:13.395Z,3.63
2022-12-25T17:46:42.274Z,3.55
2022-12-25T17:49:15.529Z,3.49
2022-12-25T17:51:44.340Z,3.43
2022-12-25T17:54:12.457Z,3.35
2022-12-25T17:56:40.452Z,3.26
2022-12-25T17:59:10.659Z,3.18
2022-12-25T18:01:40.267Z,3.10
2022-12-25T18:04:08.485Z,3.02
2022-12-25T18:06:37.243Z,2.94
2022-12-25T18:09:07.035Z,2.89
2022-12-25T18:11:39.579Z,2.85
2022-12-25T18:14:11.654Z,2.81
2022-12-25T18:16:43.436Z,2.79
2022-12-25T18:19:14.329Z,2.78
2022-12-25T18:21:42.497Z,2.77
2022-12-25T18:24:11.215Z,2.76
2022-12-25T18:26:39.683Z,2.76
2022-12-25T18:29:07.910Z,2.78
2022-12-25T18:31:36.713Z,2.81
2022-12-25T18:34:05.363Z,2.80
2022-12-25T18:36:33.934Z,2.78
2022-12-25T18:39:02.300Z,2.75
2022-12-25T18:41:30.856Z,2.74
2022-12-25T18:44:00.111Z,2.74
2022-12-25T18:46:28.783Z,2.72
2022-12-25T18:48:57.761Z,2.69
2022-12-25T18:51:29.899Z,2.65
2022-12-25T18:54:02.925Z,2.56
2022-12-25T18:56:31.082Z,2.46
2022-12-25T18:59:00.851Z,2.36
2022-12-25T19:01:29.418Z,2.27
2022-12-25T19:04:04.492Z,2.19
2022-12-25T19:06:33.979Z,2.13
2022-12-25T19:09:09.440Z,2.08
2022-12-25T19:11:46.493Z,2.04
2022-12-25T19:14:15.165Z,2.02
2022-12-25T19:16:43.757Z,2.02
2022-12-25T19:19:12.129Z,2.01
2022-12-25T19:21:41.301Z,2.01
2022-12-25T19:24:09.490Z,2.02
2022-12-25T19:26:37.869Z,2.04
2022-12-25T19:29:06.148Z,2.06
2022-12-25T19:31:34.234Z,2.07
2022-12-25T19:34:02.388Z,2.10
2022-12-25T19:36:31.264Z,2.11
2022-12-25T19:38:59.350Z,2.13
2022-12-25T19:41:27.290Z,2.14
2022-12-25T19:43:55.469Z,2.15
2022-12-25T19:46:27.250Z,2.16
2022-12-25T19:48:56.257Z,2.18
2022-12-25T19:51:27.249Z,2.19
2022-12-25T19:53:56.393Z,2.18
2022-12-25T19:56:26.168Z,2.14
2022-12-25T19:58:55.525Z,2.08
2022-12-25T20:01:26.502Z,2.02
2022-12-25T20:03:55.203Z,1.95
2022-12-25T20:06:26.723Z,1.88
2022-12-25T20:08:58.132Z,1.81
2022-12-25T20:11:28.312Z,1.75
2022-12-25T20:13:57.152Z,1.68
2022-12-25T20:16:25.875Z,1.62
2022-12-25T20:18:54.213Z,1.59
2022-12-25T20:21:23.579Z,1.55
2022-12-25T20:23:53.695Z,1.54
2022-12-25T20:26:25.160Z,1.52
2022-12-25T20:28:53.501Z,1.52
2022-12-25T20:31:24.400Z,1.53
2022-12-25T20:33:53.232Z,1.51
2022-12-25T20:36:21.755Z,1.50
2022-12-25T20:38:50.109Z,1.50
2022-12-25T20:41:26.814Z,1.51
2022-12-25T20:43:56.282Z,1.50
2022-12-25T20:46:25.683Z,1.46
2022-12-25T20:48:54.097Z,1.39
2022-12-25T20:51:25.095Z,1.33
2022-12-25T20:53:54.431Z,1.28
2022-12-25T20:56:25.171Z,1.23
2022-12-25T20:58:56.719Z,1.18
2022-12-25T21:01:25.500Z,1.12
2022-12-25T21:03:54.643Z,1.08
2022-12-25T21:06:23.850Z,1.05
2022-12-25T21:08:52.232Z,1.04
2022-12-25T21:11:21.595Z,1.04
2022-12-25T21:13:50.468Z,1.05
2022-12-25T21:16:21.780Z,1.07
2022-12-25T21:18:52.505Z,1.11
2022-12-25T21:21:22.021Z,1.15
2022-12-25T21:23:50.596Z,1.18
2022-12-25T21:26:22.555Z,1.20
2022-12-25T21:28:53.702Z,1.22
2022-12-25T21:31:22.009Z,1.25
2022-12-25T21:33:51.504Z,1.28
2022-12-25T21:36:24.367Z,1.32
2022-12-25T21:38:55.236Z,1.35
2022-12-25T21:41:23.846Z,1.34
2022-12-25T21:43:52.071Z,1.32
2022-12-25T21:46:20.501Z,1.30
2022-12-25T21:48:49.561Z,1.27
2022-12-25T21:51:43.411Z,1.21
2022-12-25T21:54:13.214Z,1.11
2022-12-25T21:56:44.799Z,1.04
2022-12-25T21:59:16.475Z,0.99
2022-12-25T22:01:45.937Z,0.94
2022-12-25T22:04:15.849Z,0.89
2022-12-25T22:07:02.693Z,0.82
2022-12-25T22:09:31.401Z,0.76
2022-12-25T22:12:18.723Z,0.71
2022-12-25T22:14:54.130Z,0.65
2022-12-25T22:17:50.375Z,0.61
2022-12-25T22:20:40.547Z,0.55
2022-12-25T22:23:08.630Z,0.50
2022-12-25T22:25:36.798Z,0.47
2022-12-25T22:28:05.067Z,0.44
2022-12-25T22:30:33.290Z,0.41
2022-12-25T22:33:02.998Z,0.36
2022-12-25T22:35:31.088Z,0.32
2022-12-25T22:37:59.258Z,0.29
2022-12-25T22:40:27.932Z,0.22
2022-12-25T22:42:57.355Z,0.11
2022-12-25T22:45:25.786Z,0.04
2022-12-25T22:47:53.974Z,-0.06
2022-12-25T22:50:22.044Z,-0.13
2022-12-25T22:52:50.175Z,-0.16
2022-12-25T22:55:19.459Z,-0.21
2022-12-25T22:57:49.087Z,-0.28
2022-12-25T23:00:17.453Z,-0.37
2022-12-25T23:02:46.077Z,-0.44
2022-12-25T23:05:14.339Z,-0.49
2022-12-25T23:07:42.303Z,-0.50
2022-12-25T23:10:10.961Z,-0.50
2022-12-25T23:12:57.602Z,-0.52
2022-12-25T23:15:27.780Z,-0.52
2022-12-25T23:18:14.446Z,-0.51
2022-12-25T23:21:01.213Z,-0.50
2022-12-25T23:23:48.000Z,-0.49
2022-12-25T23:26:20.937Z,-0.53
2022-12-25T23:29:07.647Z,-0.60
2022-12-25T23:31:39.750Z,-0.64
2022-12-25T23:34:08.333Z,-0.66
2022-12-25T23:36:36.620Z,-0.68
2022-12-25T23:39:09.712Z,-0.70
2022-12-25T23:41:39.889Z,-0.78
2022-12-25T23:44:09.036Z,-0.88
2022-12-25T23:46:37.680Z,-0.94
2022-12-25T23:49:06.567Z,-1.00
2022-12-25T23:51:39.367Z,-1.07
2022-12-25T23:54:08.479Z,-1.14
2022-12-25T23:56:36.944Z,-1.20
2022-12-25T23:59:06.382Z,-1.27
